sensor_id;sensor_type;location;lat;lon;timestamp;pressure;altitude;pressure_sealevel;temperature;humidity
81812;BME280;71243;51.848;5.768;2023-09-07T00:02:17;102011.59;;;21.55;71.39
81812;BME280;71243;51.848;5.768;2023-09-07T00:04:42;102008.63;;;21.50;71.47
81812;BME280;71243;51.848;5.768;2023-09-07T00:07:08;102011.31;;;21.50;71.72
81812;BME280;71243;51.848;5.768;2023-09-07T00:09:33;102002.81;;;21.47;71.16
81812;BME280;71243;51.848;5.768;2023-09-07T00:11:58;102008.25;;;21.53;71.48
81812;BME280;71243;51.848;5.768;2023-09-07T00:14:23;102004.47;;;21.48;71.38
81812;BME280;71243;51.848;5.768;2023-09-07T00:16:49;102010.03;;;21.46;71.19
81812;BME280;71243;51.848;5.768;2023-09-07T00:19:14;101997.53;;;21.60;71.00
81812;BME280;71243;51.848;5.768;2023-09-07T00:21:39;101998.81;;;21.43;72.01
81812;BME280;71243;51.848;5.768;2023-09-07T00:24:07;102001.72;;;21.41;71.66
81812;BME280;71243;51.848;5.768;2023-09-07T00:26:32;102004.63;;;21.25;73.02
81812;BME280;71243;51.848;5.768;2023-09-07T00:28:58;102003.47;;;20.99;74.21
81812;BME280;71243;51.848;5.768;2023-09-07T00:31:23;101996.03;;;21.15;73.36
81812;BME280;71243;51.848;5.768;2023-09-07T00:33:48;101994.47;;;21.21;72.83
81812;BME280;71243;51.848;5.768;2023-09-07T00:36:17;101989.34;;;21.26;72.49
81812;BME280;71243;51.848;5.768;2023-09-07T00:38:42;101991.06;;;21.33;71.84
81812;BME280;71243;51.848;5.768;2023-09-07T00:41:08;101995.50;;;21.41;71.26
81812;BME280;71243;51.848;5.768;2023-09-07T00:43:33;101990.69;;;21.36;71.62
81812;BME280;71243;51.848;5.768;2023-09-07T00:45:58;101989.91;;;21.42;71.07
81812;BME280;71243;51.848;5.768;2023-09-07T00:48:23;101981.59;;;21.37;71.81
81812;BME280;71243;51.848;5.768;2023-09-07T00:50:49;101988.50;;;21.25;72.16
81812;BME280;71243;51.848;5.768;2023-09-07T00:53:15;101979.84;;;21.30;71.56
81812;BME280;71243;51.848;5.768;2023-09-07T00:55:40;101979.84;;;21.30;71.25
81812;BME280;71243;51.848;5.768;2023-09-07T00:58:05;101983.56;;;21.29;72.30
81812;BME280;71243;51.848;5.768;2023-09-07T01:00:31;101978.59;;;21.26;71.50
81812;BME280;71243;51.848;5.768;2023-09-07T01:02:58;101981.47;;;21.24;71.54
81812;BME280;71243;51.848;5.768;2023-09-07T01:05:32;101983.56;;;21.29;71.33
81812;BME280;71243;51.848;5.768;2023-09-07T01:08:14;101977.94;;;21.24;71.55
81812;BME280;71243;51.848;5.768;2023-09-07T01:10:41;101970.06;;;21.22;71.61
81812;BME280;71243;51.848;5.768;2023-09-07T01:13:07;101972.38;;;21.25;70.78
81812;BME280;71243;51.848;5.768;2023-09-07T01:15:32;101977.09;;;21.23;70.85
81812;BME280;71243;51.848;5.768;2023-09-07T01:17:58;101979.47;;;21.12;71.39
81812;BME280;71243;51.848;5.768;2023-09-07T01:20:24;101975.28;;;21.09;71.19
81812;BME280;71243;51.848;5.768;2023-09-07T01:22:50;101977.78;;;21.11;71.31
81812;BME280;71243;51.848;5.768;2023-09-07T01:25:19;101980.00;;;21.07;71.02
81812;BME280;71243;51.848;5.768;2023-09-07T01:27:45;101979.81;;;21.09;71.20
81812;BME280;71243;51.848;5.768;2023-09-07T01:30:10;101973.25;;;21.11;70.79
81812;BME280;71243;51.848;5.768;2023-09-07T01:32:38;101973.25;;;21.11;70.94
81812;BME280;71243;51.848;5.768;2023-09-07T01:35:04;101976.50;;;21.07;70.90
81812;BME280;71243;51.848;5.768;2023-09-07T01:37:31;101972.34;;;21.04;71.36
81812;BME280;71243;51.848;5.768;2023-09-07T01:39:57;101962.22;;;21.06;70.90
81812;BME280;71243;51.848;5.768;2023-09-07T01:42:22;101977.72;;;21.04;70.66
81812;BME280;71243;51.848;5.768;2023-09-07T01:44:47;101975.59;;;21.00;70.68
81812;BME280;71243;51.848;5.768;2023-09-07T01:47:12;101981.59;;;21.02;70.51
81812;BME280;71243;51.848;5.768;2023-09-07T01:49:41;101976.13;;;20.95;71.27
81812;BME280;71243;51.848;5.768;2023-09-07T01:52:06;101965.56;;;20.94;70.81
81812;BME280;71243;51.848;5.768;2023-09-07T01:54:31;101966.03;;;20.83;71.33
81812;BME280;71243;51.848;5.768;2023-09-07T01:56:59;101969.56;;;20.83;71.10
81812;BME280;71243;51.848;5.768;2023-09-07T01:59:24;101969.09;;;20.80;71.54
81812;BME280;71243;51.848;5.768;2023-09-07T02:01:50;101962.44;;;20.75;71.54
81812;BME280;71243;51.848;5.768;2023-09-07T02:04:15;101971.72;;;20.73;71.18
81812;BME280;71243;51.848;5.768;2023-09-07T02:06:40;101965.69;;;20.71;71.43
81812;BME280;71243;51.848;5.768;2023-09-07T02:09:06;101970.41;;;20.69;71.20
81812;BME280;71243;51.848;5.768;2023-09-07T02:11:31;101970.03;;;20.72;71.05
81812;BME280;71243;51.848;5.768;2023-09-07T02:13:56;101972.38;;;20.60;72.17
81812;BME280;71243;51.848;5.768;2023-09-07T02:16:21;101963.84;;;20.57;72.16
81812;BME280;71243;51.848;5.768;2023-09-07T02:18:49;101966.41;;;20.50;72.18
81812;BME280;71243;51.848;5.768;2023-09-07T02:21:15;101968.38;;;20.42;72.17
81812;BME280;71243;51.848;5.768;2023-09-07T02:23:40;101967.09;;;20.38;72.46
81812;BME280;71243;51.848;5.768;2023-09-07T02:26:05;101965.97;;;20.32;72.32
81812;BME280;71243;51.848;5.768;2023-09-07T02:28:31;101970.50;;;20.32;72.83
81812;BME280;71243;51.848;5.768;2023-09-07T02:31:03;101959.97;;;20.30;72.42
81812;BME280;71243;51.848;5.768;2023-09-07T02:33:28;101960.59;;;20.32;72.78
81812;BME280;71243;51.848;5.768;2023-09-07T02:35:54;101959.03;;;20.23;73.08
81812;BME280;71243;51.848;5.768;2023-09-07T02:38:19;101969.09;;;20.21;73.24
81812;BME280;71243;51.848;5.768;2023-09-07T02:40:47;101970.47;;;20.17;73.38
81812;BME280;71243;51.848;5.768;2023-09-07T02:43:12;101966.31;;;20.15;73.79
81812;BME280;71243;51.848;5.768;2023-09-07T02:45:38;101975.16;;;20.01;74.66
81812;BME280;71243;51.848;5.768;2023-09-07T02:48:04;101968.38;;;20.05;74.28
81812;BME280;71243;51.848;5.768;2023-09-07T02:50:32;101966.28;;;20.00;74.61
81812;BME280;71243;51.848;5.768;2023-09-07T02:52:58;101967.13;;;20.01;74.50
81812;BME280;71243;51.848;5.768;2023-09-07T02:55:23;101972.34;;;19.94;74.53
81812;BME280;71243;51.848;5.768;2023-09-07T02:57:49;101977.91;;;19.93;75.09
81812;BME280;71243;51.848;5.768;2023-09-07T03:00:14;101981.19;;;20.03;74.65
81812;BME280;71243;51.848;5.768;2023-09-07T03:02:39;101976.75;;;20.10;74.14
81812;BME280;71243;51.848;5.768;2023-09-07T03:05:05;101972.56;;;20.07;74.10
81812;BME280;71243;51.848;5.768;2023-09-07T03:07:32;101971.53;;;20.08;74.08
81812;BME280;71243;51.848;5.768;2023-09-07T03:09:58;101972.09;;;20.04;73.96
81812;BME280;71243;51.848;5.768;2023-09-07T03:12:23;101976.28;;;20.06;73.80
81812;BME280;71243;51.848;5.768;2023-09-07T03:14:48;101973.94;;;20.03;74.43
81812;BME280;71243;51.848;5.768;2023-09-07T03:17:13;101965.56;;;20.06;74.17
81812;BME280;71243;51.848;5.768;2023-09-07T03:19:39;101968.38;;;20.05;74.06
81812;BME280;71243;51.848;5.768;2023-09-07T03:22:04;101969.22;;;20.05;73.63
81812;BME280;71243;51.848;5.768;2023-09-07T03:24:29;101969.31;;;19.97;73.85
81812;BME280;71243;51.848;5.768;2023-09-07T03:26:54;101957.84;;;20.03;73.66
81812;BME280;71243;51.848;5.768;2023-09-07T03:29:20;101959.13;;;19.93;74.05
81812;BME280;71243;51.848;5.768;2023-09-07T03:31:45;101961.63;;;19.94;73.82
81812;BME280;71243;51.848;5.768;2023-09-07T03:34:13;101964.16;;;19.96;73.51
81812;BME280;71243;51.848;5.768;2023-09-07T03:36:38;101955.44;;;19.94;73.79
81812;BME280;71243;51.848;5.768;2023-09-07T03:39:03;101963.84;;;19.91;74.33
81812;BME280;71243;51.848;5.768;2023-09-07T03:41:29;101967.34;;;19.91;73.98
81812;BME280;71243;51.848;5.768;2023-09-07T03:43:54;101959.50;;;19.90;73.96
81812;BME280;71243;51.848;5.768;2023-09-07T03:46:19;101964.28;;;19.80;74.35
81812;BME280;71243;51.848;5.768;2023-09-07T03:48:45;101960.94;;;19.78;74.32
81812;BME280;71243;51.848;5.768;2023-09-07T03:51:10;101963.25;;;19.81;74.03
81812;BME280;71243;51.848;5.768;2023-09-07T03:53:35;101968.53;;;19.74;74.55
81812;BME280;71243;51.848;5.768;2023-09-07T03:56:02;101960.84;;;19.71;74.43
81812;BME280;71243;51.848;5.768;2023-09-07T03:58:27;101960.53;;;19.66;74.63
81812;BME280;71243;51.848;5.768;2023-09-07T04:00:58;101965.88;;;19.66;74.95
81812;BME280;71243;51.848;5.768;2023-09-07T04:03:23;101965.59;;;19.61;75.13
81812;BME280;71243;51.848;5.768;2023-09-07T04:05:50;101958.41;;;19.61;74.60
81812;BME280;71243;51.848;5.768;2023-09-07T04:08:15;101956.25;;;19.57;75.20
81812;BME280;71243;51.848;5.768;2023-09-07T04:10:41;101964.13;;;19.58;75.33
81812;BME280;71243;51.848;5.768;2023-09-07T04:13:06;101962.25;;;19.59;74.75
81812;BME280;71243;51.848;5.768;2023-09-07T04:15:33;101957.75;;;19.59;74.97
81812;BME280;71243;51.848;5.768;2023-09-07T04:17:58;101968.94;;;19.63;74.71
81812;BME280;71243;51.848;5.768;2023-09-07T04:20:23;101959.44;;;19.60;74.29
81812;BME280;71243;51.848;5.768;2023-09-07T04:22:48;101963.66;;;19.55;74.49
81812;BME280;71243;51.848;5.768;2023-09-07T04:25:14;101957.81;;;19.51;74.72
81812;BME280;71243;51.848;5.768;2023-09-07T04:27:39;101953.44;;;19.50;74.70
81812;BME280;71243;51.848;5.768;2023-09-07T04:30:05;101952.97;;;19.47;74.54
81812;BME280;71243;51.848;5.768;2023-09-07T04:32:30;101958.22;;;19.40;75.14
81812;BME280;71243;51.848;5.768;2023-09-07T04:34:56;101960.06;;;19.40;75.01
81812;BME280;71243;51.848;5.768;2023-09-07T04:37:22;101968.75;;;19.42;75.06
81812;BME280;71243;51.848;5.768;2023-09-07T04:39:52;101969.41;;;19.44;74.69
81812;BME280;71243;51.848;5.768;2023-09-07T04:42:17;101967.09;;;19.41;74.55
81812;BME280;71243;51.848;5.768;2023-09-07T04:44:42;101971.44;;;19.42;74.92
81812;BME280;71243;51.848;5.768;2023-09-07T04:47:08;101973.75;;;19.45;74.81
81812;BME280;71243;51.848;5.768;2023-09-07T04:49:33;101974.59;;;19.45;74.95
81812;BME280;71243;51.848;5.768;2023-09-07T04:51:58;101971.81;;;19.39;74.93
81812;BME280;71243;51.848;5.768;2023-09-07T04:54:23;101977.84;;;19.41;74.37
81812;BME280;71243;51.848;5.768;2023-09-07T04:56:48;101977.28;;;19.45;74.41
81812;BME280;71243;51.848;5.768;2023-09-07T04:59:14;101975.63;;;19.44;74.57
81812;BME280;71243;51.848;5.768;2023-09-07T05:01:39;101978.13;;;19.46;74.63
81812;BME280;71243;51.848;5.768;2023-09-07T05:04:04;101974.59;;;19.45;74.38
81812;BME280;71243;51.848;5.768;2023-09-07T05:06:30;101970.78;;;19.40;74.21
81812;BME280;71243;51.848;5.768;2023-09-07T05:08:55;101970.66;;;19.33;74.75
81812;BME280;71243;51.848;5.768;2023-09-07T05:11:20;101978.53;;;19.35;74.97
81812;BME280;71243;51.848;5.768;2023-09-07T05:13:45;101977.91;;;19.25;75.38
81812;BME280;71243;51.848;5.768;2023-09-07T05:16:11;101983.88;;;19.35;74.86
81812;BME280;71243;51.848;5.768;2023-09-07T05:18:36;101980.88;;;19.30;74.92
81812;BME280;71243;51.848;5.768;2023-09-07T05:21:11;101991.63;;;19.22;75.31
81812;BME280;71243;51.848;5.768;2023-09-07T05:23:36;101986.16;;;19.15;75.33
81812;BME280;71243;51.848;5.768;2023-09-07T05:26:01;101992.66;;;19.21;75.44
81812;BME280;71243;51.848;5.768;2023-09-07T05:28:26;101994.91;;;19.09;76.08
81812;BME280;71243;51.848;5.768;2023-09-07T05:30:51;101993.41;;;19.07;76.03
81812;BME280;71243;51.848;5.768;2023-09-07T05:33:17;102001.25;;;19.08;76.29
81812;BME280;71243;51.848;5.768;2023-09-07T05:35:43;102000.78;;;19.05;76.16
81812;BME280;71243;51.848;5.768;2023-09-07T05:38:09;101998.06;;;19.13;76.00
81812;BME280;71243;51.848;5.768;2023-09-07T05:40:38;102004.66;;;19.02;77.12
81812;BME280;71243;51.848;5.768;2023-09-07T05:43:04;102004.97;;;18.99;77.25
81812;BME280;71243;51.848;5.768;2023-09-07T05:45:35;102004.13;;;19.07;76.98
81812;BME280;71243;51.848;5.768;2023-09-07T05:48:00;102008.44;;;19.16;76.53
81812;BME280;71243;51.848;5.768;2023-09-07T05:50:26;102000.88;;;19.19;75.97
81812;BME280;71243;51.848;5.768;2023-09-07T05:52:51;102008.44;;;19.16;76.28
81812;BME280;71243;51.848;5.768;2023-09-07T05:55:16;102011.41;;;19.21;76.07
81812;BME280;71243;51.848;5.768;2023-09-07T05:57:42;102010.94;;;19.17;76.46
81812;BME280;71243;51.848;5.768;2023-09-07T06:00:08;102014.75;;;19.23;76.14
81812;BME280;71243;51.848;5.768;2023-09-07T06:02:33;102023.78;;;19.22;76.14
81812;BME280;71243;51.848;5.768;2023-09-07T06:04:58;102016.09;;;19.27;77.74
81812;BME280;71243;51.848;5.768;2023-09-07T06:07:24;102027.78;;;19.26;76.83
81812;BME280;71243;51.848;5.768;2023-09-07T06:09:49;102023.78;;;19.22;77.14
81812;BME280;71243;51.848;5.768;2023-09-07T06:12:14;102023.94;;;19.28;76.39
81812;BME280;71243;51.848;5.768;2023-09-07T06:14:40;102028.28;;;19.29;77.16
81812;BME280;71243;51.848;5.768;2023-09-07T06:17:08;102019.75;;;19.34;76.57
81812;BME280;71243;51.848;5.768;2023-09-07T06:19:33;102038.16;;;19.37;76.56
81812;BME280;71243;51.848;5.768;2023-09-07T06:21:58;102031.16;;;19.36;75.97
81812;BME280;71243;51.848;5.768;2023-09-07T06:24:24;102033.09;;;19.42;75.42
81812;BME280;71243;51.848;5.768;2023-09-07T06:26:49;102032.03;;;19.51;76.69
81812;BME280;71243;51.848;5.768;2023-09-07T06:29:14;102042.41;;;19.54;75.86
81812;BME280;71243;51.848;5.768;2023-09-07T06:31:39;102037.00;;;19.62;74.90
81812;BME280;71243;51.848;5.768;2023-09-07T06:34:05;102037.19;;;19.60;76.14
81812;BME280;71243;51.848;5.768;2023-09-07T06:36:30;102040.34;;;19.64;76.08
81812;BME280;71243;51.848;5.768;2023-09-07T06:38:55;102046.97;;;19.76;74.45
81812;BME280;71243;51.848;5.768;2023-09-07T06:41:21;102049.47;;;19.78;74.44
81812;BME280;71243;51.848;5.768;2023-09-07T06:43:46;102049.22;;;19.87;74.78
81812;BME280;71243;51.848;5.768;2023-09-07T06:46:11;102047.19;;;19.89;75.31
81812;BME280;71243;51.848;5.768;2023-09-07T06:48:37;102045.16;;;19.91;74.05
81812;BME280;71243;51.848;5.768;2023-09-07T06:51:03;102052.13;;;20.00;73.52
81812;BME280;71243;51.848;5.768;2023-09-07T06:53:28;102045.59;;;20.03;73.84
81812;BME280;71243;51.848;5.768;2023-09-07T06:56:00;102046.69;;;20.08;73.96
81812;BME280;71243;51.848;5.768;2023-09-07T06:58:29;102047.50;;;20.17;73.94
81812;BME280;71243;51.848;5.768;2023-09-07T07:00:58;102045.44;;;20.19;73.04
81812;BME280;71243;51.848;5.768;2023-09-07T07:03:27;102054.56;;;20.32;72.64
81812;BME280;71243;51.848;5.768;2023-09-07T07:05:54;102048.63;;;20.37;73.20
81812;BME280;71243;51.848;5.768;2023-09-07T07:08:22;102047.53;;;20.46;72.78
81812;BME280;71243;51.848;5.768;2023-09-07T07:10:47;102062.09;;;20.51;71.94
81812;BME280;71243;51.848;5.768;2023-09-07T07:13:13;102062.00;;;20.59;72.52
81812;BME280;71243;51.848;5.768;2023-09-07T07:15:38;102047.13;;;20.71;71.66
81812;BME280;71243;51.848;5.768;2023-09-07T07:18:04;102058.03;;;20.85;71.15
81812;BME280;71243;51.848;5.768;2023-09-07T07:20:29;102054.97;;;20.88;70.77
81812;BME280;71243;51.848;5.768;2023-09-07T07:22:54;102057.50;;;21.04;72.00
81812;BME280;71243;51.848;5.768;2023-09-07T07:25:19;102057.88;;;21.15;71.10
81812;BME280;71243;51.848;5.768;2023-09-07T07:27:45;102054.88;;;21.25;70.40
81812;BME280;71243;51.848;5.768;2023-09-07T07:30:10;102053.56;;;21.35;68.95
81812;BME280;71243;51.848;5.768;2023-09-07T07:32:35;102058.84;;;21.43;69.25
81812;BME280;71243;51.848;5.768;2023-09-07T07:35:01;102059.75;;;21.50;69.75
81812;BME280;71243;51.848;5.768;2023-09-07T07:37:29;102059.69;;;21.65;69.30
81812;BME280;71243;51.848;5.768;2023-09-07T07:39:54;102050.75;;;21.79;68.74
81812;BME280;71243;51.848;5.768;2023-09-07T07:42:19;102063.06;;;21.88;68.93
81812;BME280;71243;51.848;5.768;2023-09-07T07:44:44;102059.28;;;22.04;68.42
81812;BME280;71243;51.848;5.768;2023-09-07T07:47:10;102059.53;;;22.09;67.96
81812;BME280;71243;51.848;5.768;2023-09-07T07:49:36;102060.91;;;22.26;67.45
81812;BME280;71243;51.848;5.768;2023-09-07T07:52:01;102053.09;;;22.31;67.13
81812;BME280;71243;51.848;5.768;2023-09-07T07:54:26;102055.03;;;22.43;66.04
81812;BME280;71243;51.848;5.768;2023-09-07T07:56:52;102054.72;;;22.53;66.33
81812;BME280;71243;51.848;5.768;2023-09-07T07:59:17;102052.13;;;22.66;65.68
81812;BME280;71243;51.848;5.768;2023-09-07T08:01:42;102048.91;;;22.83;65.88
81812;BME280;71243;51.848;5.768;2023-09-07T08:04:08;102050.44;;;22.99;65.61
81812;BME280;71243;51.848;5.768;2023-09-07T08:06:33;102052.16;;;23.13;64.68
81812;BME280;71243;51.848;5.768;2023-09-07T08:08:59;102058.81;;;23.17;63.65
81812;BME280;71243;51.848;5.768;2023-09-07T08:11:24;102046.66;;;23.34;63.87
81812;BME280;71243;51.848;5.768;2023-09-07T08:13:52;102049.84;;;23.57;63.64
81812;BME280;71243;51.848;5.768;2023-09-07T08:16:18;102044.28;;;23.65;62.06
81812;BME280;71243;51.848;5.768;2023-09-07T08:18:43;102048.88;;;23.78;62.62
81812;BME280;71243;51.848;5.768;2023-09-07T08:21:08;102043.91;;;23.94;62.37
81812;BME280;71243;51.848;5.768;2023-09-07T08:23:34;102046.38;;;23.96;61.70
81812;BME280;71243;51.848;5.768;2023-09-07T08:25:59;102036.25;;;24.18;61.56
81812;BME280;71243;51.848;5.768;2023-09-07T08:28:24;102037.28;;;24.30;60.85
81812;BME280;71243;51.848;5.768;2023-09-07T08:30:50;102030.63;;;24.52;60.01
81812;BME280;71243;51.848;5.768;2023-09-07T08:33:19;102021.03;;;24.62;59.16
81812;BME280;71243;51.848;5.768;2023-09-07T08:35:45;102017.91;;;24.78;59.65
81812;BME280;71243;51.848;5.768;2023-09-07T08:38:10;102016.59;;;24.94;59.07
81812;BME280;71243;51.848;5.768;2023-09-07T08:40:36;102025.69;;;25.06;58.72
81812;BME280;71243;51.848;5.768;2023-09-07T08:43:03;102019.19;;;25.20;59.41
81812;BME280;71243;51.848;5.768;2023-09-07T08:45:33;102021.22;;;25.31;55.93
81812;BME280;71243;51.848;5.768;2023-09-07T08:48:02;102023.41;;;25.47;57.18
81812;BME280;71243;51.848;5.768;2023-09-07T08:50:28;102015.50;;;25.52;50.48
81812;BME280;71243;51.848;5.768;2023-09-07T08:52:55;102015.22;;;25.60;50.91
81812;BME280;71243;51.848;5.768;2023-09-07T08:55:21;102008.66;;;25.74;51.08
81812;BME280;71243;51.848;5.768;2023-09-07T08:57:46;102017.97;;;25.85;50.84
81812;BME280;71243;51.848;5.768;2023-09-07T09:00:12;102015.72;;;25.82;49.31
81812;BME280;71243;51.848;5.768;2023-09-07T09:02:37;102017.31;;;25.89;49.26
81812;BME280;71243;51.848;5.768;2023-09-07T09:05:03;102013.31;;;25.92;48.11
81812;BME280;71243;51.848;5.768;2023-09-07T09:07:29;102008.75;;;25.92;48.27
81812;BME280;71243;51.848;5.768;2023-09-07T09:10:11;102008.53;;;25.94;47.76
81812;BME280;71243;51.848;5.768;2023-09-07T09:12:45;102001.63;;;25.98;49.48
81812;BME280;71243;51.848;5.768;2023-09-07T09:15:13;101997.81;;;26.06;48.95
81812;BME280;71243;51.848;5.768;2023-09-07T09:17:38;102002.13;;;26.13;50.86
81812;BME280;71243;51.848;5.768;2023-09-07T09:20:04;102005.84;;;26.19;48.22
81812;BME280;71243;51.848;5.768;2023-09-07T09:22:29;101999.09;;;26.28;48.57
81812;BME280;71243;51.848;5.768;2023-09-07T09:24:55;101996.53;;;26.33;49.78
81812;BME280;71243;51.848;5.768;2023-09-07T09:27:23;102000.38;;;26.43;48.49
81812;BME280;71243;51.848;5.768;2023-09-07T09:29:49;102003.38;;;26.53;48.52
81812;BME280;71243;51.848;5.768;2023-09-07T09:32:15;101996.59;;;26.44;47.03
81812;BME280;71243;51.848;5.768;2023-09-07T09:34:43;101996.56;;;26.51;47.00
81812;BME280;71243;51.848;5.768;2023-09-07T09:37:13;101994.84;;;26.56;46.99
81812;BME280;71243;51.848;5.768;2023-09-07T09:39:42;101998.19;;;26.52;45.52
81812;BME280;71243;51.848;5.768;2023-09-07T09:42:08;101990.22;;;26.57;47.12
81812;BME280;71243;51.848;5.768;2023-09-07T09:44:34;101990.03;;;26.76;45.90
81812;BME280;71243;51.848;5.768;2023-09-07T09:47:01;101981.00;;;26.82;45.85
81812;BME280;71243;51.848;5.768;2023-09-07T09:49:27;101987.03;;;26.84;46.84
81812;BME280;71243;51.848;5.768;2023-09-07T09:51:53;101976.69;;;26.93;44.92
81812;BME280;71243;51.848;5.768;2023-09-07T09:54:19;101978.19;;;26.89;44.92
81812;BME280;71243;51.848;5.768;2023-09-07T09:56:45;101975.97;;;26.97;45.03
81812;BME280;71243;51.848;5.768;2023-09-07T09:59:14;101972.91;;;26.94;44.45
81812;BME280;71243;51.848;5.768;2023-09-07T10:01:49;101970.03;;;26.89;44.07
81812;BME280;71243;51.848;5.768;2023-09-07T10:04:17;101979.31;;;26.99;44.95
81812;BME280;71243;51.848;5.768;2023-09-07T10:07:02;101983.25;;;27.15;44.91
81812;BME280;71243;51.848;5.768;2023-09-07T10:09:33;101959.91;;;27.32;45.18
81812;BME280;71243;51.848;5.768;2023-09-07T10:11:59;101966.97;;;27.33;43.64
81812;BME280;71243;51.848;5.768;2023-09-07T10:14:24;101954.38;;;27.50;44.69
81812;BME280;71243;51.848;5.768;2023-09-07T10:16:53;101952.38;;;27.46;43.21
81812;BME280;71243;51.848;5.768;2023-09-07T10:19:22;101956.28;;;27.61;45.18
81812;BME280;71243;51.848;5.768;2023-09-07T10:21:48;101954.66;;;27.72;44.70
81812;BME280;71243;51.848;5.768;2023-09-07T10:24:31;101945.13;;;27.92;44.28
81812;BME280;71243;51.848;5.768;2023-09-07T10:27:01;101948.22;;;28.07;43.40
81812;BME280;71243;51.848;5.768;2023-09-07T10:29:27;101945.84;;;28.23;43.97
81812;BME280;71243;51.848;5.768;2023-09-07T10:31:52;101948.91;;;28.38;43.93
81812;BME280;71243;51.848;5.768;2023-09-07T10:34:17;101941.44;;;28.33;43.29
81812;BME280;71243;51.848;5.768;2023-09-07T10:36:43;101947.25;;;28.25;43.20
81812;BME280;71243;51.848;5.768;2023-09-07T10:39:09;101941.22;;;28.46;43.08
81812;BME280;71243;51.848;5.768;2023-09-07T10:41:44;101939.47;;;28.52;43.24
81812;BME280;71243;51.848;5.768;2023-09-07T10:44:10;101933.03;;;28.69;43.41
81812;BME280;71243;51.848;5.768;2023-09-07T10:46:37;101939.28;;;28.70;41.54
81812;BME280;71243;51.848;5.768;2023-09-07T10:49:02;101932.34;;;28.62;41.53
81812;BME280;71243;51.848;5.768;2023-09-07T10:51:27;101938.13;;;28.43;41.36
81812;BME280;71243;51.848;5.768;2023-09-07T10:53:53;101939.88;;;28.49;42.17
81812;BME280;71243;51.848;5.768;2023-09-07T10:56:18;101943.31;;;28.56;42.67
81812;BME280;71243;51.848;5.768;2023-09-07T10:58:43;101922.91;;;28.53;41.10
81812;BME280;71243;51.848;5.768;2023-09-07T11:01:09;101935.75;;;28.69;42.77
81812;BME280;71243;51.848;5.768;2023-09-07T11:03:35;101934.91;;;28.69;42.50
81812;BME280;71243;51.848;5.768;2023-09-07T11:06:08;101930.75;;;28.78;42.96
81812;BME280;71243;51.848;5.768;2023-09-07T11:08:34;101929.53;;;28.85;41.62
81812;BME280;71243;51.848;5.768;2023-09-07T11:11:01;101929.88;;;28.89;41.11
81812;BME280;71243;51.848;5.768;2023-09-07T11:13:27;101927.25;;;28.94;40.82
81812;BME280;71243;51.848;5.768;2023-09-07T11:15:56;101921.47;;;28.90;39.58
81812;BME280;71243;51.848;5.768;2023-09-07T11:18:23;101926.00;;;28.85;39.96
81812;BME280;71243;51.848;5.768;2023-09-07T11:20:49;101918.84;;;28.95;40.77
81812;BME280;71243;51.848;5.768;2023-09-07T11:23:17;101916.63;;;29.09;40.89
81812;BME280;71243;51.848;5.768;2023-09-07T11:25:47;101919.69;;;29.24;40.44
81812;BME280;71243;51.848;5.768;2023-09-07T11:28:12;101920.06;;;29.16;39.56
81812;BME280;71243;51.848;5.768;2023-09-07T11:30:49;101917.69;;;29.20;40.12
81812;BME280;71243;51.848;5.768;2023-09-07T11:33:15;101912.56;;;29.23;38.97
81812;BME280;71243;51.848;5.768;2023-09-07T11:35:40;101911.28;;;29.26;40.69
81812;BME280;71243;51.848;5.768;2023-09-07T11:38:06;101910.50;;;29.30;39.22
81812;BME280;71243;51.848;5.768;2023-09-07T11:40:31;101912.09;;;29.43;39.81
81812;BME280;71243;51.848;5.768;2023-09-07T11:42:56;101905.69;;;29.49;39.90
81812;BME280;71243;51.848;5.768;2023-09-07T11:45:22;101912.00;;;29.54;39.88
81812;BME280;71243;51.848;5.768;2023-09-07T11:47:47;101903.44;;;29.62;40.22
81812;BME280;71243;51.848;5.768;2023-09-07T11:50:12;101898.41;;;29.71;40.15
81812;BME280;71243;51.848;5.768;2023-09-07T11:52:38;101897.69;;;29.75;38.27
81812;BME280;71243;51.848;5.768;2023-09-07T11:55:03;101893.47;;;29.68;38.77
81812;BME280;71243;51.848;5.768;2023-09-07T11:57:29;101882.97;;;29.76;39.00
81812;BME280;71243;51.848;5.768;2023-09-07T11:59:55;101887.84;;;29.58;38.29
81812;BME280;71243;51.848;5.768;2023-09-07T12:02:20;101891.34;;;29.70;38.00
81812;BME280;71243;51.848;5.768;2023-09-07T12:04:45;101881.38;;;29.47;39.63
81812;BME280;71243;51.848;5.768;2023-09-07T12:07:10;101883.53;;;29.62;39.83
81812;BME280;71243;51.848;5.768;2023-09-07T12:09:36;101883.16;;;29.70;38.96
81812;BME280;71243;51.848;5.768;2023-09-07T12:12:03;101888.09;;;29.73;39.58
81812;BME280;71243;51.848;5.768;2023-09-07T12:14:28;101880.66;;;29.85;41.05
81812;BME280;71243;51.848;5.768;2023-09-07T12:16:54;101880.78;;;29.95;39.39
81812;BME280;71243;51.848;5.768;2023-09-07T12:19:19;101885.53;;;29.83;39.53
81812;BME280;71243;51.848;5.768;2023-09-07T12:21:44;101884.41;;;29.79;38.56
81812;BME280;71243;51.848;5.768;2023-09-07T12:24:09;101886.50;;;29.93;39.41
81812;BME280;71243;51.848;5.768;2023-09-07T12:26:35;101882.38;;;29.91;39.66
81812;BME280;71243;51.848;5.768;2023-09-07T12:29:00;101879.03;;;30.05;38.18
81812;BME280;71243;51.848;5.768;2023-09-07T12:31:25;101869.84;;;30.11;38.68
81812;BME280;71243;51.848;5.768;2023-09-07T12:33:51;101879.50;;;30.19;39.60
81812;BME280;71243;51.848;5.768;2023-09-07T12:36:19;101871.69;;;30.06;38.78
81812;BME280;71243;51.848;5.768;2023-09-07T12:38:44;101863.63;;;30.16;39.72
81812;BME280;71243;51.848;5.768;2023-09-07T12:41:09;101868.69;;;30.07;38.09
81812;BME280;71243;51.848;5.768;2023-09-07T12:43:36;101865.34;;;30.22;38.93
81812;BME280;71243;51.848;5.768;2023-09-07T12:46:01;101871.16;;;30.26;38.10